Time;durP1;ratioP1;P1;durP2;ratioP2;P2;SDS_P1;SDS_P2;PMS_P1;PMS_P2;Temp;Humidity;BMP_temperature;BMP_pressure;BME280_temperature;BME280_humidity;BME280_pressure;Samples;Min_cycle;Max_cycle;Signal;HPM_P1;HPM_P2
2021/11/18 00:00:39;;;;;;;45.75;25.05;;;;;;;4.41;100.00;102570.16;5123615;27;20042;-72
2021/11/18 00:03:06;;;;;;;49.60;25.17;;;;;;;4.36;100.00;102568.19;5124187;27;20028;-74
2021/11/18 00:05:33;;;;;;;50.63;24.95;;;;;;;4.31;100.00;102568.72;5124255;27;20019;-73
2021/11/18 00:07:58;;;;;;;47.85;24.60;;;;;;;4.30;100.00;102566.94;5122957;27;20019;-72
2021/11/18 00:10:33;;;;;;;47.40;25.88;;;;;;;4.23;100.00;102576.16;5125692;27;20027;-73
2021/11/18 00:13:01;;;;;;;48.35;26.48;;;;;;;4.27;100.00;102572.00;5123060;27;20027;-70
2021/11/18 00:15:28;;;;;;;47.88;26.63;;;;;;;4.27;100.00;102564.16;5106778;27;20030;-70
2021/11/18 00:18:05;;;;;;;55.45;28.05;;;;;;;4.29;100.00;102568.63;5122299;27;20023;-70
2021/11/18 00:20:35;;;;;;;50.83;27.38;;;;;;;4.26;100.00;102570.19;5124585;27;20081;-70
2021/11/18 00:23:00;;;;;;;51.28;27.45;;;;;;;4.24;100.00;102575.34;5123211;27;20027;-70
2021/11/18 00:25:26;;;;;;;50.58;27.50;;;;;;;4.25;100.00;102571.91;5124650;27;20370;-70
2021/11/18 00:27:51;;;;;;;53.55;29.58;;;;;;;4.20;100.00;102570.75;5122048;27;20031;-70
2021/11/18 00:30:17;;;;;;;55.30;29.30;;;;;;;4.22;100.00;102565.59;5125284;27;20019;-71
2021/11/18 00:32:44;;;;;;;54.40;29.63;;;;;;;4.17;100.00;102576.69;5122465;27;20034;-73
2021/11/18 00:35:15;;;;;;;53.70;29.67;;;;;;;4.18;100.00;102582.84;5124268;27;20031;-72
2021/11/18 00:37:40;;;;;;;51.90;29.80;;;;;;;4.15;100.00;102580.94;5123225;27;20031;-72
2021/11/18 00:40:07;;;;;;;57.42;30.48;;;;;;;4.09;100.00;102593.69;5123498;27;20057;-73
2021/11/18 00:42:33;;;;;;;54.15;31.33;;;;;;;4.05;100.00;102589.09;5123841;27;20354;-72
2021/11/18 00:45:00;;;;;;;57.70;31.95;;;;;;;4.01;100.00;102602.78;5122665;27;20030;-72
2021/11/18 00:47:25;;;;;;;53.38;32.35;;;;;;;3.96;100.00;102606.84;5124803;27;20027;-72
2021/11/18 00:49:52;;;;;;;55.47;33.13;;;;;;;3.98;100.00;102611.34;5121879;28;20093;-72
2021/11/18 00:52:17;;;;;;;58.17;33.47;;;;;;;3.98;100.00;102606.13;5124984;27;20114;-72
2021/11/18 00:54:43;;;;;;;57.90;32.78;;;;;;;3.99;100.00;102610.56;5122186;28;20446;-72
2021/11/18 00:57:08;;;;;;;60.58;33.08;;;;;;;3.99;100.00;102604.41;5123241;27;20139;-70
2021/11/18 00:59:34;;;;;;;57.55;33.55;;;;;;;4.00;100.00;102619.28;5123417;28;20019;-71
2021/11/18 01:01:59;;;;;;;58.63;33.90;;;;;;;4.00;100.00;102616.69;5122393;28;20068;-71
2021/11/18 01:04:27;;;;;;;60.63;35.03;;;;;;;4.01;100.00;102613.25;5124946;28;20418;-71
2021/11/18 01:06:53;;;;;;;59.25;34.72;;;;;;;3.98;100.00;102607.84;5121722;28;20076;-71
2021/11/18 01:09:19;;;;;;;57.20;34.33;;;;;;;3.95;100.00;102608.56;5117365;28;20019;-72
2021/11/18 01:11:45;;;;;;;63.00;35.15;;;;;;;3.98;100.00;102618.31;5124295;28;20480;-71
2021/11/18 01:14:13;;;;;;;60.50;36.15;;;;;;;3.97;100.00;102617.38;5122623;28;20034;-70
2021/11/18 01:16:40;;;;;;;63.40;35.25;;;;;;;3.92;100.00;102608.38;5123876;28;20035;-72
2021/11/18 01:19:07;;;;;;;56.75;34.22;;;;;;;3.84;100.00;102602.69;5123304;28;20029;-70
2021/11/18 01:21:34;;;;;;;64.38;36.28;;;;;;;3.92;100.00;102599.63;5122906;28;20019;-70
2021/11/18 01:24:00;;;;;;;62.08;36.35;;;;;;;3.94;100.00;102598.00;5123736;28;20031;-72
2021/11/18 01:26:26;;;;;;;59.88;36.10;;;;;;;3.95;100.00;102605.06;5121622;28;20485;-72
2021/11/18 01:28:52;;;;;;;64.78;36.42;;;;;;;3.93;100.00;102610.19;5124770;28;20051;-71
2021/11/18 01:31:18;;;;;;;72.60;37.28;;;;;;;3.93;100.00;102611.88;5121370;28;20027;-71
2021/11/18 01:33:44;;;;;;;62.55;36.47;;;;;;;3.92;100.00;102599.63;5124198;28;20020;-70
2021/11/18 01:36:10;;;;;;;70.10;36.47;;;;;;;3.92;100.00;102600.53;5122417;28;20019;-72
2021/11/18 01:38:35;;;;;;;63.25;36.85;;;;;;;3.93;100.00;102601.41;5123053;28;20020;-70
2021/11/18 01:41:08;;;;;;;70.45;37.65;;;;;;;3.93;100.00;102611.88;5123732;28;20428;-72
2021/11/18 01:43:40;;;;;;;67.97;36.90;;;;;;;3.90;100.00;102612.59;5122706;28;20412;-70
2021/11/18 01:46:11;;;;;;;69.90;37.38;;;;;;;3.90;100.00;102616.94;5122638;28;20175;-71
2021/11/18 01:48:37;;;;;;;66.78;37.67;;;;;;;3.92;100.00;102615.34;5123043;28;20177;-72
2021/11/18 01:51:06;;;;;;;72.63;37.30;;;;;;;3.88;100.00;102616.84;5121680;28;20358;-73
2021/11/18 01:53:38;;;;;;;73.85;38.15;;;;;;;3.81;100.00;102623.41;5121989;28;20020;-71
2021/11/18 01:56:23;;;;;;;71.93;39.35;;;;;;;3.82;100.00;102617.38;5120253;28;20027;-73
2021/11/18 01:58:53;;;;;;;69.80;38.65;;;;;;;3.77;100.00;102618.84;5120534;28;20529;-74
2021/11/18 02:01:20;;;;;;;74.00;38.83;;;;;;;3.73;100.00;102627.31;5123238;28;20485;-72
2021/11/18 02:03:46;;;;;;;71.40;38.47;;;;;;;3.74;100.00;102631.75;5122908;28;20431;-73
2021/11/18 02:06:26;;;;;;;72.45;39.95;;;;;;;3.77;100.00;102634.53;5121917;28;20031;-73
2021/11/18 02:08:52;;;;;;;71.90;39.47;;;;;;;3.75;100.00;102640.47;5122161;28;20023;-74
2021/11/18 02:11:29;;;;;;;74.47;40.50;;;;;;;3.77;100.00;102642.38;5126730;27;20031;-74
2021/11/18 02:13:57;;;;;;;77.07;40.75;;;;;;;3.79;100.00;102632.00;5125100;27;20492;-73
2021/11/18 02:16:23;;;;;;;73.50;38.30;;;;;;;3.77;100.00;102631.00;5127045;27;20020;-73
2021/11/18 02:18:49;;;;;;;75.28;40.20;;;;;;;3.73;100.00;102637.78;5125729;27;20034;-72
2021/11/18 02:21:16;;;;;;;76.80;40.20;;;;;;;3.74;100.00;102634.34;5126020;27;20020;-72
2021/11/18 02:23:57;;;;;;;81.57;39.50;;;;;;;3.73;100.00;102639.47;5126750;27;20050;-73
2021/11/18 02:26:25;;;;;;;78.30;39.88;;;;;;;3.72;100.00;102641.19;5126878;27;20027;-75
2021/11/18 02:28:55;;;;;;;81.75;41.05;;;;;;;3.73;100.00;102631.63;5125631;27;20033;-75
2021/11/18 02:31:20;;;;;;;78.18;42.08;;;;;;;3.75;100.00;102627.41;5126732;27;20469;-75
2021/11/18 02:33:47;;;;;;;80.90;41.38;;;;;;;3.74;100.00;102626.50;5125676;27;20031;-75
2021/11/18 02:36:12;;;;;;;75.68;39.20;;;;;;;3.76;100.00;102627.50;5125382;27;20019;-75
2021/11/18 02:38:38;;;;;;;74.75;39.40;;;;;;;3.71;100.00;102628.91;5126887;27;20025;-75
2021/11/18 02:41:06;;;;;;;87.45;41.25;;;;;;;3.70;100.00;102640.19;5123993;27;20118;-75
2021/11/18 02:43:31;;;;;;;81.22;42.65;;;;;;;3.67;100.00;102646.13;5120236;27;20026;-75
2021/11/18 02:45:57;;;;;;;86.35;42.22;;;;;;;3.64;100.00;102645.97;5127053;27;20043;-75
2021/11/18 02:48:22;;;;;;;81.30;43.55;;;;;;;3.73;100.00;102640.38;5124428;27;20102;-75
2021/11/18 02:50:55;;;;;;;83.38;43.55;;;;;;;3.78;100.00;102646.78;5125794;27;20055;-75
2021/11/18 02:53:21;;;;;;;84.63;43.25;;;;;;;3.87;100.00;102642.94;5124954;27;20034;-75
2021/11/18 02:55:49;;;;;;;85.07;42.90;;;;;;;3.94;100.00;102647.72;5125558;27;20394;-75
2021/11/18 02:58:15;;;;;;;83.95;43.60;;;;;;;3.99;100.00;102636.72;5125586;27;20039;-74
2021/11/18 03:00:47;;;;;;;86.57;42.40;;;;;;;3.98;100.00;102632.28;5124749;27;20423;-75
2021/11/18 03:03:13;;;;;;;71.93;40.72;;;;;;;4.04;100.00;102636.09;5125940;27;20525;-75
2021/11/18 03:05:40;;;;;;;76.82;41.10;;;;;;;4.08;100.00;102638.06;5124417;27;20015;-71
2021/11/18 03:08:05;;;;;;;75.03;40.50;;;;;;;4.07;100.00;102639.78;5127015;27;20088;-72
2021/11/18 03:10:31;;;;;;;75.32;41.92;;;;;;;4.09;100.00;102647.72;5123496;27;20019;-70
2021/11/18 03:12:57;;;;;;;71.93;38.75;;;;;;;4.07;100.00;102638.91;5126540;27;20058;-72
2021/11/18 03:15:24;;;;;;;79.53;41.08;;;;;;;4.07;100.00;102650.25;5124459;27;20015;-71
2021/11/18 03:17:49;;;;;;;81.43;40.38;;;;;;;4.10;100.00;102639.97;5125358;27;20024;-72
2021/11/18 03:20:17;;;;;;;77.70;40.33;;;;;;;4.07;100.00;102636.28;5106947;27;20375;-71
2021/11/18 03:22:44;;;;;;;75.68;39.75;;;;;;;4.12;100.00;102629.59;5124745;27;20099;-71
2021/11/18 03:25:13;;;;;;;78.47;41.45;;;;;;;4.15;100.00;102643.78;5125696;27;20030;-71
2021/11/18 03:27:38;;;;;;;80.15;40.03;;;;;;;4.19;100.00;102635.28;5123728;27;20024;-71
2021/11/18 03:30:06;;;;;;;71.95;38.30;;;;;;;4.25;100.00;102637.38;5126744;27;20023;-71
2021/11/18 03:32:32;;;;;;;74.97;39.17;;;;;;;4.31;100.00;102640.34;5118855;27;20028;-72
2021/11/18 03:34:57;;;;;;;72.78;38.33;;;;;;;4.34;100.00;102639.63;5126078;27;20413;-71
2021/11/18 03:37:23;;;;;;;80.53;38.85;;;;;;;4.33;100.00;102643.06;5123921;27;20015;-71
2021/11/18 03:39:48;;;;;;;69.93;38.65;;;;;;;4.33;100.00;102643.06;5124775;27;20426;-72
2021/11/18 03:42:13;;;;;;;77.72;39.63;;;;;;;4.34;100.00;102642.25;5125169;27;20022;-72
2021/11/18 03:44:39;;;;;;;73.05;38.58;;;;;;;4.35;100.00;102638.78;5123532;27;20028;-72
2021/11/18 03:47:08;;;;;;;74.07;38.72;;;;;;;4.36;100.00;102643.22;5126002;27;20056;-72
2021/11/18 03:49:34;;;;;;;75.97;38.72;;;;;;;4.36;100.00;102645.84;5122695;27;20535;-71
2021/11/18 03:52:03;;;;;;;81.03;39.17;;;;;;;4.39;100.00;102647.75;5118708;27;20020;-72
2021/11/18 03:54:31;;;;;;;73.22;38.35;;;;;;;4.38;100.00;102648.56;5125699;27;20045;-72
2021/11/18 03:56:56;;;;;;;71.28;38.05;;;;;;;4.37;100.00;102647.66;5122887;27;20044;-72
2021/11/18 03:59:26;;;;;;;72.10;37.05;;;;;;;4.35;100.00;102649.28;5124669;27;20379;-71
2021/11/18 04:01:53;;;;;;;79.10;38.90;;;;;;;4.39;100.00;102655.59;5123300;27;20526;-72
2021/11/18 04:04:23;;;;;;;81.10;38.22;;;;;;;4.38;100.00;102654.69;5124564;27;20016;-72
2021/11/18 04:06:49;;;;;;;75.38;38.78;;;;;;;4.40;100.00;102658.31;5124174;27;20370;-72
2021/11/18 04:09:16;;;;;;;78.53;37.53;;;;;;;4.46;100.00;102653.41;5123668;27;20077;-72
2021/11/18 04:11:44;;;;;;;77.15;38.17;;;;;;;4.49;100.00;102656.22;5124688;27;20023;-72
2021/11/18 04:14:11;;;;;;;78.32;38.75;;;;;;;4.50;100.00;102655.41;5122970;27;20019;-71
2021/11/18 04:16:37;;;;;;;70.78;36.65;;;;;;;4.52;100.00;102659.00;5125506;27;20041;-72
2021/11/18 04:19:03;;;;;;;71.65;37.92;;;;;;;4.52;100.00;102656.38;5122121;27;20019;-72
2021/11/18 04:21:31;;;;;;;70.03;36.33;;;;;;;4.51;100.00;102659.84;5125593;27;20035;-71
2021/11/18 04:23:57;;;;;;;73.75;36.20;;;;;;;4.55;100.00;102653.06;5122333;27;20347;-72
2021/11/18 04:26:23;;;;;;;65.28;34.85;;;;;;;4.56;100.00;102652.25;5106549;27;20035;-72
2021/11/18 04:28:48;;;;;;;67.20;35.65;;;;;;;4.57;100.00;102648.78;5123710;27;20469;-72
2021/11/18 04:31:16;;;;;;;71.75;35.67;;;;;;;4.53;100.00;102650.34;5122874;27;20031;-72
2021/11/18 04:33:42;;;;;;;72.88;35.80;;;;;;;4.56;100.00;102651.31;5124019;27;20072;-72
2021/11/18 04:36:10;;;;;;;71.78;36.08;;;;;;;4.53;100.00;102658.22;5122534;27;20059;-72
2021/11/18 04:38:36;;;;;;;72.63;35.88;;;;;;;4.52;100.00;102659.00;5125373;27;20019;-70
2021/11/18 04:41:03;;;;;;;74.30;36.30;;;;;;;4.51;100.00;102654.59;5121792;27;20030;-71
2021/11/18 04:43:29;;;;;;;70.95;34.92;;;;;;;4.49;100.00;102655.31;5125253;27;20027;-71
2021/11/18 04:45:54;;;;;;;75.60;35.42;;;;;;;4.56;100.00;102656.56;5122117;27;20042;-72
2021/11/18 04:48:21;;;;;;;67.00;35.35;;;;;;;4.50;100.00;102655.41;5123641;27;20024;-71
2021/11/18 04:50:47;;;;;;;68.00;36.88;;;;;;;4.54;100.00;102660.03;5123872;27;20023;-71
2021/11/18 04:53:13;;;;;;;75.22;36.63;;;;;;;4.50;100.00;102650.16;5121077;27;20034;-72
2021/11/18 04:55:39;;;;;;;71.93;36.10;;;;;;;4.52;100.00;102653.78;5122570;28;20027;-72
2021/11/18 04:58:06;;;;;;;67.13;35.13;;;;;;;4.57;100.00;102661.00;5123960;28;20048;-72
2021/11/18 05:00:48;;;;;;;70.68;35.90;;;;;;;4.57;100.00;102656.66;5122898;28;20434;-72
2021/11/18 05:03:15;;;;;;;69.23;34.97;;;;;;;4.57;100.00;102658.38;5120228;28;20057;-71
2021/11/18 05:05:41;;;;;;;67.38;33.60;;;;;;;4.56;100.00;102644.38;5117175;28;20023;-71
2021/11/18 05:08:07;;;;;;;65.80;33.47;;;;;;;4.59;100.00;102641.03;5124627;28;20105;-72
2021/11/18 05:10:34;;;;;;;66.90;34.33;;;;;;;4.56;100.00;102635.59;5122755;28;20106;-71
2021/11/18 05:12:59;;;;;;;68.90;34.80;;;;;;;4.52;100.00;102653.78;5123320;28;20032;-70
2021/11/18 05:15:28;;;;;;;71.00;34.40;;;;;;;4.51;100.00;102652.00;5123584;28;20026;-71
2021/11/18 05:17:53;;;;;;;70.35;34.42;;;;;;;4.45;100.00;102638.50;5122715;28;20023;-71
2021/11/18 05:20:21;;;;;;;72.97;34.97;;;;;;;4.45;100.00;102650.72;5124706;28;20445;-70
2021/11/18 05:22:47;;;;;;;74.50;34.28;;;;;;;4.44;100.00;102656.75;5121614;28;20492;-70
2021/11/18 05:25:13;;;;;;;68.68;35.28;;;;;;;4.36;100.00;102654.59;5124938;28;20023;-71
2021/11/18 05:27:39;;;;;;;74.55;35.22;;;;;;;4.31;100.00;102653.44;5121690;28;20028;-71
2021/11/18 05:30:07;;;;;;;75.82;35.20;;;;;;;4.28;100.00;102654.94;5124012;28;20026;-71
2021/11/18 05:32:32;;;;;;;71.35;33.22;;;;;;;4.26;100.00;102660.09;5122448;28;20058;-71
2021/11/18 05:34:59;;;;;;;66.95;34.90;;;;;;;4.28;100.00;102657.56;5123063;28;20403;-71
2021/11/18 05:37:25;;;;;;;71.70;34.00;;;;;;;4.35;100.00;102644.97;5123848;28;20031;-71
2021/11/18 05:39:51;;;;;;;72.85;36.00;;;;;;;4.35;100.00;102634.47;5121858;28;20024;-71
2021/11/18 05:42:16;;;;;;;70.82;34.20;;;;;;;4.33;100.00;102636.09;5124837;28;20350;-71
2021/11/18 05:44:42;;;;;;;70.22;35.20;;;;;;;4.31;100.00;102636.81;5123670;27;20031;-73
2021/11/18 05:47:08;;;;;;;76.82;35.30;;;;;;;4.27;100.00;102640.09;5124823;27;20041;-71
2021/11/18 05:49:33;;;;;;;73.50;34.28;;;;;;;4.25;100.00;102641.69;5107539;27;20023;-71
2021/11/18 05:51:58;;;;;;;74.97;35.88;;;;;;;4.18;100.00;102643.94;5128389;27;20019;-70
2021/11/18 05:54:24;;;;;;;71.05;35.60;;;;;;;4.13;100.00;102640.16;5124691;27;20027;-72
2021/11/18 05:56:49;;;;;;;75.03;34.92;;;;;;;4.14;100.00;102644.56;5128111;27;20072;-73
2021/11/18 05:59:15;;;;;;;68.05;34.05;;;;;;;4.15;100.00;102643.78;5125485;27;20042;-71
2021/11/18 06:01:41;;;;;;;68.75;34.53;;;;;;;4.17;100.00;102651.72;5126519;27;20027;-71
2021/11/18 06:04:06;;;;;;;72.35;35.17;;;;;;;4.19;100.00;102652.69;5127010;27;20023;-72
2021/11/18 06:06:32;;;;;;;71.90;35.63;;;;;;;4.18;100.00;102654.44;5125313;27;20026;-73
2021/11/18 06:09:04;;;;;;;75.30;35.47;;;;;;;4.15;100.00;102646.38;5127869;27;20026;-73
2021/11/18 06:11:35;;;;;;;75.47;36.13;;;;;;;4.19;100.00;102656.25;5125063;27;20042;-73
2021/11/18 06:14:02;;;;;;;78.10;35.58;;;;;;;4.19;100.00;102655.31;5127665;27;20060;-73
2021/11/18 06:16:28;;;;;;;73.47;35.22;;;;;;;4.26;100.00;102656.59;5124565;27;20031;-74
2021/11/18 06:18:58;;;;;;;70.22;34.33;;;;;;;4.29;100.00;102654.16;5128279;27;20479;-74
2021/11/18 06:21:23;;;;;;;67.20;33.22;;;;;;;4.34;100.00;102647.50;5120334;27;20099;-74
2021/11/18 06:23:49;;;;;;;66.75;32.28;;;;;;;4.33;100.00;102656.16;5127591;27;20058;-74
2021/11/18 06:26:14;;;;;;;68.72;32.22;;;;;;;4.36;100.00;102661.56;5125401;27;20031;-72
2021/11/18 06:28:40;;;;;;;64.82;31.92;;;;;;;4.40;100.00;102663.56;5126063;27;20035;-71
2021/11/18 06:31:09;;;;;;;66.50;33.05;;;;;;;4.42;100.00;102653.16;5126288;27;20487;-74
2021/11/18 06:33:35;;;;;;;63.70;31.73;;;;;;;4.43;100.00;102655.88;5125604;27;20032;-72
2021/11/18 06:36:00;;;;;;;62.17;31.08;;;;;;;4.46;100.00;102642.94;5116276;27;20065;-71
2021/11/18 06:38:27;;;;;;;61.80;30.42;;;;;;;4.48;100.00;102658.75;5118357;27;20020;-71
2021/11/18 06:40:52;;;;;;;59.70;30.02;;;;;;;4.49;100.00;102657.94;5115604;27;20030;-72
2021/11/18 06:43:19;;;;;;;58.65;29.58;;;;;;;4.57;100.00;102659.28;5114872;28;20521;-72
2021/11/18 06:45:46;;;;;;;67.32;31.80;;;;;;;4.59;100.00;102675.06;5119184;27;20461;-71
2021/11/18 06:48:18;;;;;;;68.13;31.65;;;;;;;4.60;100.00;102671.66;5119647;27;20529;-71
2021/11/18 06:50:44;;;;;;;67.80;32.63;;;;;;;4.56;100.00;102681.06;5118641;27;20115;-70
2021/11/18 06:53:10;;;;;;;63.63;30.90;;;;;;;4.56;100.00;102669.66;5115242;27;20023;-70
2021/11/18 06:55:35;;;;;;;66.32;31.48;;;;;;;4.58;100.00;102671.56;5118233;27;20505;-71
2021/11/18 06:58:01;;;;;;;72.78;33.22;;;;;;;4.58;100.00;102673.28;5112911;27;20073;-72
2021/11/18 07:00:27;;;;;;;67.18;31.67;;;;;;;4.59;100.00;102670.75;5118502;27;20028;-70
2021/11/18 07:02:52;;;;;;;67.43;31.10;;;;;;;4.59;100.00;102676.00;5116099;27;20492;-71
2021/11/18 07:05:18;;;;;;;68.43;31.80;;;;;;;4.58;100.00;102682.03;5120738;27;20035;-71
2021/11/18 07:07:44;;;;;;;65.60;30.17;;;;;;;4.69;100.00;102674.81;5123846;27;20023;-74
2021/11/18 07:10:10;;;;;;;61.83;29.48;;;;;;;4.66;100.00;102672.91;5116038;27;20039;-73
2021/11/18 07:12:36;;;;;;;61.80;29.50;;;;;;;4.71;100.00;102681.94;5119478;27;20023;-74
2021/11/18 07:15:04;;;;;;;58.35;29.52;;;;;;;4.70;100.00;102684.47;5119243;27;20472;-74
2021/11/18 07:17:31;;;;;;;58.05;28.48;;;;;;;4.70;100.00;102687.09;5118778;27;20072;-71
2021/11/18 07:19:56;;;;;;;57.78;29.05;;;;;;;4.69;100.00;102687.94;5118862;27;20019;-70
2021/11/18 07:22:22;;;;;;;55.15;28.25;;;;;;;4.72;100.00;102688.09;5117469;27;20027;-74
2021/11/18 07:24:47;;;;;;;54.47;27.88;;;;;;;4.76;100.00;102678.69;5119821;27;20080;-72
2021/11/18 07:27:12;;;;;;;51.67;26.95;;;;;;;4.75;100.00;102677.78;5119473;27;20508;-71
2021/11/18 07:29:38;;;;;;;53.05;28.27;;;;;;;4.73;100.00;102679.41;5116812;27;20123;-71
2021/11/18 07:32:04;;;;;;;52.47;27.55;;;;;;;4.76;100.00;102681.31;5118081;27;20027;-72
2021/11/18 07:34:29;;;;;;;51.75;26.88;;;;;;;4.76;100.00;102689.16;5114994;27;20413;-71
2021/11/18 07:36:55;;;;;;;61.70;29.08;;;;;;;4.75;100.00;102688.28;5119281;27;20030;-72
2021/11/18 07:39:23;;;;;;;53.28;28.00;;;;;;;4.77;100.00;102696.22;5117026;27;20419;-73
2021/11/18 07:41:51;;;;;;;55.85;26.85;;;;;;;4.77;100.00;102697.09;5117090;27;20032;-68
2021/11/18 07:44:17;;;;;;;51.00;27.02;;;;;;;4.77;100.00;102712.84;5112668;27;20065;-72
2021/11/18 07:46:43;;;;;;;51.33;27.67;;;;;;;4.81;100.00;102709.56;5113280;27;20505;-71
2021/11/18 07:49:09;;;;;;;51.53;28.08;;;;;;;4.81;100.00;102717.44;5110150;28;20019;-71
2021/11/18 07:51:37;;;;;;;52.08;26.63;;;;;;;4.84;100.00;102721.97;5113259;27;20024;-70
2021/11/18 07:54:03;;;;;;;56.55;28.17;;;;;;;4.88;100.00;102723.94;5118651;27;20432;-69
2021/11/18 07:56:30;;;;;;;53.13;26.73;;;;;;;4.91;100.00;102726.75;5116525;27;20027;-73
2021/11/18 07:58:56;;;;;;;51.20;25.73;;;;;;;4.95;100.00;102727.81;5115503;27;20473;-72
2021/11/18 08:01:23;;;;;;;51.83;25.45;;;;;;;4.99;100.00;102735.03;5114245;27;20023;-70
2021/11/18 08:03:49;;;;;;;52.08;25.25;;;;;;;5.03;100.00;102742.28;5113261;27;20039;-69
2021/11/18 08:06:19;;;;;;;52.60;25.63;;;;;;;5.06;100.00;102753.81;5114713;27;20032;-69
2021/11/18 08:08:45;;;;;;;53.15;25.50;;;;;;;5.09;100.00;102745.22;5118092;27;20024;-70
2021/11/18 08:11:17;;;;;;;46.92;24.25;;;;;;;5.12;100.00;102747.13;5117985;27;20031;-70
2021/11/18 08:13:42;;;;;;;48.97;24.13;;;;;;;5.18;100.00;102758.84;5114675;27;20031;-69
2021/11/18 08:16:08;;;;;;;48.72;23.27;;;;;;;5.22;100.00;102750.34;5096931;28;20447;-70
2021/11/18 08:18:33;;;;;;;51.28;24.42;;;;;;;5.30;100.00;102736.78;5118443;27;20035;-69
2021/11/18 08:20:58;;;;;;;47.58;23.42;;;;;;;5.35;100.00;102737.94;5113418;27;20054;-69
2021/11/18 08:23:24;;;;;;;45.78;23.33;;;;;;;5.41;100.00;102740.91;5115725;27;20115;-70
2021/11/18 08:25:49;;;;;;;50.83;24.30;;;;;;;5.41;100.00;102740.91;5113561;27;20016;-71
2021/11/18 08:28:15;;;;;;;48.55;23.42;;;;;;;5.44;100.00;102748.06;5118039;27;20019;-72
2021/11/18 08:30:42;;;;;;;49.72;22.60;;;;;;;5.48;100.00;102750.91;5114425;27;20478;-70
2021/11/18 08:33:11;;;;;;;46.78;22.13;;;;;;;5.53;100.00;102733.72;5116742;27;20073;-71
2021/11/18 08:35:38;;;;;;;48.33;21.80;;;;;;;5.61;100.00;102733.22;5117197;27;20107;-72
2021/11/18 08:38:08;;;;;;;45.47;22.00;;;;;;;5.63;100.00;102732.50;5115244;27;20077;-73
2021/11/18 08:40:35;;;;;;;51.65;23.10;;;;;;;5.64;100.00;102736.94;5117488;27;20027;-72
2021/11/18 08:43:02;;;;;;;42.15;20.60;;;;;;;5.72;100.00;102739.97;5117387;27;20039;-72
2021/11/18 08:45:27;;;;;;;47.88;22.73;;;;;;;5.70;100.00;102739.00;5111893;27;20023;-72
2021/11/18 08:47:53;;;;;;;48.17;22.60;;;;;;;5.69;100.00;102740.69;5116783;27;20374;-73
2021/11/18 08:50:20;;;;;;;47.05;22.17;;;;;;;5.74;100.00;102727.84;5114460;28;20031;-71
2021/11/18 08:52:46;;;;;;;47.85;22.33;;;;;;;5.78;100.00;102716.66;5113801;27;20058;-72
2021/11/18 08:55:16;;;;;;;45.88;21.75;;;;;;;5.76;100.00;102708.72;5112659;28;20031;-72
2021/11/18 08:57:42;;;;;;;43.30;21.55;;;;;;;5.81;100.00;102708.97;5094278;28;20524;-72
2021/11/18 09:00:12;;;;;;;50.08;23.02;;;;;;;5.79;100.00;102728.97;5114587;28;20055;-73
2021/11/18 09:02:39;;;;;;;48.92;22.23;;;;;;;5.75;100.00;102730.56;5113467;28;20054;-70
2021/11/18 09:05:04;;;;;;;44.88;22.02;;;;;;;5.76;100.00;102719.22;5111058;28;20028;-71
2021/11/18 09:07:30;;;;;;;44.80;22.17;;;;;;;5.72;100.00;102727.75;5113135;28;20382;-68
2021/11/18 09:09:55;;;;;;;45.03;21.73;;;;;;;5.72;100.00;102725.13;5117675;28;20118;-68
2021/11/18 09:12:22;;;;;;;45.50;21.80;;;;;;;5.72;100.00;102721.59;5114409;28;20439;-70
2021/11/18 09:14:48;;;;;;;47.67;23.05;;;;;;;5.75;100.00;102727.00;5116092;28;20148;-69
2021/11/18 09:17:14;;;;;;;45.55;22.00;;;;;;;5.85;100.00;102736.28;5113620;28;20103;-72
2021/11/18 09:19:43;;;;;;;49.10;22.88;;;;;;;5.88;100.00;102737.38;5122138;27;20032;-72
2021/11/18 09:22:10;;;;;;;46.58;22.10;;;;;;;5.98;100.00;102743.13;5119191;27;20087;-72
2021/11/18 09:24:41;;;;;;;47.28;22.20;;;;;;;6.18;100.00;102752.97;5116741;27;20023;-72
2021/11/18 09:27:14;;;;;;;46.50;22.08;;;;;;;6.33;100.00;102759.84;5118262;27;20075;-72
2021/11/18 09:29:40;;;;;;;46.60;21.33;;;;;;;6.45;100.00;102761.41;5118027;27;20032;-72
2021/11/18 09:32:07;;;;;;;42.85;20.00;;;;;;;6.76;100.00;102764.69;5117090;27;20473;-72
2021/11/18 09:34:32;;;;;;;45.90;21.45;;;;;;;6.92;100.00;102758.47;5121596;27;20574;-72
2021/11/18 09:36:58;;;;;;;42.85;20.15;;;;;;;7.13;100.00;102753.38;5116043;27;20073;-73
2021/11/18 09:39:25;;;;;;;43.40;20.30;;;;;;;7.35;100.00;102757.03;5117804;27;20016;-73
2021/11/18 09:41:53;;;;;;;41.05;19.95;;;;;;;7.43;100.00;102745.16;5128114;27;20019;-74
2021/11/18 09:45:04;;;;;;;38.13;18.40;;;;;;;7.57;100.00;102754.63;5124671;27;20020;-73
2021/11/18 09:48:28;;;;;;;37.42;16.90;;;;;;;7.87;100.00;102777.91;5024057;28;20429;-73
2021/11/18 09:51:19;;;;;;;45.97;18.95;;;;;;;7.97;100.00;102777.50;4933260;29;20091;-71
2021/11/18 09:54:27;;;;;;;37.65;17.23;;;;;;;8.02;100.00;102781.28;4937409;29;20391;-71
2021/11/18 09:57:07;;;;;;;40.25;17.90;;;;;;;8.06;100.00;102789.31;4931526;29;20066;-73
2021/11/18 09:59:54;;;;;;;43.45;18.20;;;;;;;8.23;100.00;102787.41;4935480;29;20570;-71
2021/11/18 10:02:56;;;;;;;38.58;17.38;;;;;;;8.55;100.00;102786.25;4935939;29;20042;-72
2021/11/18 10:05:26;;;;;;;39.13;16.30;;;;;;;9.04;95.19;102787.44;4941704;29;20055;-72
2021/11/18 10:08:07;;;;;;;37.38;16.27;;;;;;;8.93;92.30;102789.63;4939654;29;20063;-72
2021/11/18 10:10:43;;;;;;;35.78;17.05;;;;;;;8.94;93.73;102788.81;4941031;29;20031;-73
2021/11/18 10:13:20;;;;;;;38.15;16.25;;;;;;;9.34;91.13;102797.47;4939742;29;20067;-72
2021/11/18 10:15:50;;;;;;;38.25;16.70;;;;;;;9.50;88.33;102801.63;4939228;29;20043;-72
2021/11/18 10:18:26;;;;;;;38.22;15.60;;;;;;;9.71;85.87;102805.09;4936036;29;20398;-70
2021/11/18 10:20:59;;;;;;;41.58;16.10;;;;;;;9.83;86.86;102798.47;4939044;29;20034;-69
2021/11/18 10:23:25;;;;;;;36.33;15.35;;;;;;;9.98;82.76;102793.78;4943281;28;20161;-67
2021/11/18 10:26:07;;;;;;;33.08;14.50;;;;;;;10.05;81.77;102784.38;5117597;27;20425;-69
2021/11/18 10:28:37;;;;;;;;;;;;;;;10.50;86.08;102786.91;5118268;27;20055;-70
2021/11/18 10:31:22;;;;;;;35.85;14.85;;;;;;;11.20;78.08;102778.66;5115833;27;19907;-68
2021/11/18 10:34:27;;;;;;;36.72;14.05;;;;;;;11.19;75.93;102763.66;5113688;27;20031;-69
2021/11/18 10:37:08;;;;;;;35.08;14.02;;;;;;;11.16;75.65;102788.25;5116313;27;20389;-69
2021/11/18 10:39:52;;;;;;;35.95;13.57;;;;;;;11.82;73.65;102774.44;5114592;27;20027;-70
2021/11/18 10:42:30;;;;;;;34.90;12.90;;;;;;;12.66;72.18;102761.75;5115726;27;20077;-71
2021/11/18 10:45:07;;;;;;;30.55;11.82;;;;;;;13.06;67.40;102760.13;5116941;27;20164;-70
2021/11/18 10:48:00;;;;;;;32.05;12.57;;;;;;;13.35;66.55;102759.06;5117119;27;20023;-72
2021/11/18 10:50:45;;;;;;;29.83;11.45;;;;;;;13.29;65.23;102757.13;5115101;27;20031;-74
2021/11/18 10:53:23;;;;;;;31.25;11.55;;;;;;;13.52;63.97;102755.03;5116321;27;20439;-73
2021/11/18 10:56:04;;;;;;;30.25;10.35;;;;;;;13.96;62.50;102756.84;5111843;27;20031;-74
2021/11/18 10:58:44;;;;;;;32.15;11.15;;;;;;;13.48;61.91;102747.84;5113387;27;20085;-75
2021/11/18 11:01:29;;;;;;;32.33;10.85;;;;;;;13.62;62.03;102744.63;5117331;27;20031;-75
2021/11/18 11:04:00;;;;;;;30.30;10.93;;;;;;;13.18;62.59;102754.22;5112129;27;20018;-74
2021/11/18 11:06:30;;;;;;;32.92;11.60;;;;;;;13.60;61.89;102753.44;5118803;27;20038;-74
2021/11/18 11:09:14;;;;;;;31.35;11.30;;;;;;;13.95;60.21;102747.97;5124725;27;20028;-75
2021/11/18 11:12:09;;;;;;;31.52;10.48;;;;;;;13.65;60.71;102739.38;5123249;27;20047;-72
2021/11/18 11:14:56;;;;;;;30.00;10.60;;;;;;;14.10;61.89;102739.41;5124176;27;20019;-72
2021/11/18 11:17:21;;;;;;;29.42;10.18;;;;;;;14.35;57.95;102736.34;5120419;27;20046;-74